sensor_id;sensor_type;location;lat;lon;timestamp;P1;P2;P0
69349;PMS5003;64554;43.452;4.934;2024-01-11T00:00:29;10.40;8.40;6.00
69349;PMS5003;64554;43.452;4.934;2024-01-11T00:02:56;9.00;9.00;6.00
69349;PMS5003;64554;43.452;4.934;2024-01-11T00:05:22;12.00;9.00;5.40
69349;PMS5003;64554;43.452;4.934;2024-01-11T00:07:49;14.00;12.00;8.50
69349;PMS5003;64554;43.452;4.934;2024-01-11T00:10:16;30.00;25.40;13.40
69349;PMS5003;64554;43.452;4.934;2024-01-11T00:12:42;16.00;13.00;8.00
69349;PMS5003;64554;43.452;4.934;2024-01-11T00:15:09;36.75;28.50;16.50
69349;PMS5003;64554;43.452;4.934;2024-01-11T00:17:35;18.50;15.50;10.00
69349;PMS5003;64554;43.452;4.934;2024-01-11T00:20:02;36.75;31.00;17.25
69349;PMS5003;64554;43.452;4.934;2024-01-11T00:22:29;15.50;14.25;8.00
69349;PMS5003;64554;43.452;4.934;2024-01-11T00:24:56;15.00;13.00;9.00
69349;PMS5003;64554;43.452;4.934;2024-01-11T00:27:22;8.67;8.67;5.00
69349;PMS5003;64554;43.452;4.934;2024-01-11T00:29:49;15.00;15.00;6.00
69349;PMS5003;64554;43.452;4.934;2024-01-11T00:32:15;6.50;6.50;5.00
69349;PMS5003;64554;43.452;4.934;2024-01-11T00:34:42;10.40;10.00;6.40
69349;PMS5003;64554;43.452;4.934;2024-01-11T00:37:08;8.00;8.00;5.00
69349;PMS5003;64554;43.452;4.934;2024-01-11T00:39:35;11.00;9.00;6.00
69349;PMS5003;64554;43.452;4.934;2024-01-11T00:42:01;8.60;8.60;6.40
69349;PMS5003;64554;43.452;4.934;2024-01-11T00:44:28;7.50;7.00;5.50
69349;PMS5003;64554;43.452;4.934;2024-01-11T00:46:54;9.00;8.00;5.00
69349;PMS5003;64554;43.452;4.934;2024-01-11T00:49:21;9.00;8.20;5.20
69349;PMS5003;64554;43.452;4.934;2024-01-11T00:51:47;8.00;7.00;4.00
69349;PMS5003;64554;43.452;4.934;2024-01-11T00:54:14;8.00;7.00;4.00
69349;PMS5003;64554;43.452;4.934;2024-01-11T00:56:40;6.50;6.50;5.00
69349;PMS5003;64554;43.452;4.934;2024-01-11T00:59:07;7.00;7.00;5.00
69349;PMS5003;64554;43.452;4.934;2024-01-11T01:01:33;5.50;5.50;4.00
69349;PMS5003;64554;43.452;4.934;2024-01-11T01:04:00;9.20;7.40;4.00
69349;PMS5003;64554;43.452;4.934;2024-01-11T01:06:26;12.80;8.00;5.00
69349;PMS5003;64554;43.452;4.934;2024-01-11T01:08:54;7.25;7.25;5.00
69349;PMS5003;64554;43.452;4.934;2024-01-11T01:11:20;8.40;8.00;4.00
69349;PMS5003;64554;43.452;4.934;2024-01-11T01:13:47;7.00;7.00;5.00
69349;PMS5003;64554;43.452;4.934;2024-01-11T01:16:14;6.40;6.40;4.00
69349;PMS5003;64554;43.452;4.934;2024-01-11T01:18:41;10.00;7.60;5.00
69349;PMS5003;64554;43.452;4.934;2024-01-11T01:21:07;9.00;7.40;4.00
69349;PMS5003;64554;43.452;4.934;2024-01-11T01:23:34;7.00;5.50;5.00
69349;PMS5003;64554;43.452;4.934;2024-01-11T01:26:00;10.25;7.75;4.75
69349;PMS5003;64554;43.452;4.934;2024-01-11T01:28:30;7.00;6.00;4.50
69349;PMS5003;64554;43.452;4.934;2024-01-11T01:30:57;9.00;7.00;3.00
69349;PMS5003;64554;43.452;4.934;2024-01-11T01:33:23;7.75;7.00;5.00
69349;PMS5003;64554;43.452;4.934;2024-01-11T01:35:50;11.25;11.00;6.00
69349;PMS5003;64554;43.452;4.934;2024-01-11T01:38:16;10.00;8.00;5.00
69349;PMS5003;64554;43.452;4.934;2024-01-11T01:40:43;9.00;8.20;5.00
69349;PMS5003;64554;43.452;4.934;2024-01-11T01:43:10;7.00;5.00;3.80
69349;PMS5003;64554;43.452;4.934;2024-01-11T01:45:36;10.00;9.00;6.00
69349;PMS5003;64554;43.452;4.934;2024-01-11T01:48:03;97.25;92.25;56.25
69349;PMS5003;64554;43.452;4.934;2024-01-11T01:50:30;14.75;14.50;7.25
69349;PMS5003;64554;43.452;4.934;2024-01-11T01:52:57;9.00;9.00;5.00
69349;PMS5003;64554;43.452;4.934;2024-01-11T01:55:24;7.00;7.00;4.00
69349;PMS5003;64554;43.452;4.934;2024-01-11T01:57:51;9.00;9.00;5.60
69349;PMS5003;64554;43.452;4.934;2024-01-11T02:00:18;12.50;11.25;6.00
69349;PMS5003;64554;43.452;4.934;2024-01-11T02:02:45;9.00;9.00;6.00
69349;PMS5003;64554;43.452;4.934;2024-01-11T02:05:12;7.00;7.00;5.00
69349;PMS5003;64554;43.452;4.934;2024-01-11T02:07:39;10.00;8.50;6.00
69349;PMS5003;64554;43.452;4.934;2024-01-11T02:10:06;8.40;8.40;4.40
69349;PMS5003;64554;43.452;4.934;2024-01-11T02:12:34;9.00;9.00;4.20
69349;PMS5003;64554;43.452;4.934;2024-01-11T02:15:01;9.40;7.40;5.00
69349;PMS5003;64554;43.452;4.934;2024-01-11T02:17:30;9.00;9.00;6.00
69349;PMS5003;64554;43.452;4.934;2024-01-11T02:19:56;9.20;8.00;6.00
69349;PMS5003;64554;43.452;4.934;2024-01-11T02:22:32;9.00;7.60;5.00
69349;PMS5003;64554;43.452;4.934;2024-01-11T02:24:58;6.50;6.50;4.00
69349;PMS5003;64554;43.452;4.934;2024-01-11T02:27:25;7.00;7.00;5.00
69349;PMS5003;64554;43.452;4.934;2024-01-11T02:29:51;8.75;7.50;4.50
69349;PMS5003;64554;43.452;4.934;2024-01-11T02:32:18;8.75;7.75;5.50
69349;PMS5003;64554;43.452;4.934;2024-01-11T02:34:44;7.20;7.00;5.00
69349;PMS5003;64554;43.452;4.934;2024-01-11T02:37:11;8.00;8.00;5.40
69349;PMS5003;64554;43.452;4.934;2024-01-11T02:39:38;9.00;8.00;5.00
69349;PMS5003;64554;43.452;4.934;2024-01-11T02:42:05;8.00;6.50;4.25
69349;PMS5003;64554;43.452;4.934;2024-01-11T02:44:32;7.25;7.25;5.00
69349;PMS5003;64554;43.452;4.934;2024-01-11T02:46:58;10.00;8.00;5.00
69349;PMS5003;64554;43.452;4.934;2024-01-11T02:49:25;9.50;8.50;4.50
69349;PMS5003;64554;43.452;4.934;2024-01-11T02:51:51;7.00;7.00;4.67
69349;PMS5003;64554;43.452;4.934;2024-01-11T02:54:18;10.00;7.50;4.50
69349;PMS5003;64554;43.452;4.934;2024-01-11T02:56:44;9.00;7.60;4.40
69349;PMS5003;64554;43.452;4.934;2024-01-11T02:59:11;9.00;7.50;4.50
69349;PMS5003;64554;43.452;4.934;2024-01-11T03:01:37;8.00;7.00;5.40
69349;PMS5003;64554;43.452;4.934;2024-01-11T03:04:04;9.00;7.40;5.00
69349;PMS5003;64554;43.452;4.934;2024-01-11T03:06:31;12.40;11.00;6.00
69349;PMS5003;64554;43.452;4.934;2024-01-11T03:08:58;7.25;7.25;4.00
69349;PMS5003;64554;43.452;4.934;2024-01-11T03:11:24;7.50;7.50;5.25
69349;PMS5003;64554;43.452;4.934;2024-01-11T03:13:50;8.00;8.00;4.20
69349;PMS5003;64554;43.452;4.934;2024-01-11T03:16:17;10.00;8.80;5.00
69349;PMS5003;64554;43.452;4.934;2024-01-11T03:18:43;10.00;9.00;4.00
69349;PMS5003;64554;43.452;4.934;2024-01-11T03:21:10;10.40;8.40;5.00
69349;PMS5003;64554;43.452;4.934;2024-01-11T03:23:36;7.40;7.40;5.00
69349;PMS5003;64554;43.452;4.934;2024-01-11T03:26:03;11.60;11.60;5.60
69349;PMS5003;64554;43.452;4.934;2024-01-11T03:28:30;9.00;8.00;6.00
69349;PMS5003;64554;43.452;4.934;2024-01-11T03:30:57;9.60;9.00;5.00
69349;PMS5003;64554;43.452;4.934;2024-01-11T03:33:24;12.60;10.20;5.00
69349;PMS5003;64554;43.452;4.934;2024-01-11T03:35:51;10.00;10.00;5.00
69349;PMS5003;64554;43.452;4.934;2024-01-11T03:38:17;11.40;10.00;5.00
69349;PMS5003;64554;43.452;4.934;2024-01-11T03:40:44;13.00;11.00;6.00
69349;PMS5003;64554;43.452;4.934;2024-01-11T03:43:10;10.00;9.00;5.50
69349;PMS5003;64554;43.452;4.934;2024-01-11T03:45:36;12.00;10.00;7.00
69349;PMS5003;64554;43.452;4.934;2024-01-11T03:48:03;9.00;9.00;6.50
69349;PMS5003;64554;43.452;4.934;2024-01-11T03:50:30;10.00;10.00;5.00
69349;PMS5003;64554;43.452;4.934;2024-01-11T03:52:56;8.00;8.00;5.00
69349;PMS5003;64554;43.452;4.934;2024-01-11T03:55:23;12.00;11.00;7.00
69349;PMS5003;64554;43.452;4.934;2024-01-11T03:57:49;12.40;12.40;8.40
69349;PMS5003;64554;43.452;4.934;2024-01-11T04:00:16;11.00;11.00;6.00
69349;PMS5003;64554;43.452;4.934;2024-01-11T04:02:42;12.50;12.50;6.50
69349;PMS5003;64554;43.452;4.934;2024-01-11T04:05:09;12.25;12.00;6.25
69349;PMS5003;64554;43.452;4.934;2024-01-11T04:07:36;18.00;16.25;8.00
69349;PMS5003;64554;43.452;4.934;2024-01-11T04:10:02;9.75;9.75;6.25
69349;PMS5003;64554;43.452;4.934;2024-01-11T04:12:29;12.00;11.00;8.00
69349;PMS5003;64554;43.452;4.934;2024-01-11T04:14:55;11.33;10.00;7.00
69349;PMS5003;64554;43.452;4.934;2024-01-11T04:17:21;9.40;9.40;6.00
69349;PMS5003;64554;43.452;4.934;2024-01-11T04:19:48;9.75;9.75;8.00
69349;PMS5003;64554;43.452;4.934;2024-01-11T04:22:15;12.80;11.20;8.00
69349;PMS5003;64554;43.452;4.934;2024-01-11T04:24:42;14.00;11.20;7.00
69349;PMS5003;64554;43.452;4.934;2024-01-11T04:27:09;10.20;9.20;5.00
69349;PMS5003;64554;43.452;4.934;2024-01-11T04:29:35;13.25;10.25;6.00
69349;PMS5003;64554;43.452;4.934;2024-01-11T04:32:02;15.00;15.00;8.00
69349;PMS5003;64554;43.452;4.934;2024-01-11T04:34:29;12.00;10.50;7.00
69349;PMS5003;64554;43.452;4.934;2024-01-11T04:36:56;12.20;12.20;8.80
69349;PMS5003;64554;43.452;4.934;2024-01-11T04:39:22;15.80;14.80;9.80
69349;PMS5003;64554;43.452;4.934;2024-01-11T04:41:49;13.50;12.75;8.50
69349;PMS5003;64554;43.452;4.934;2024-01-11T04:44:15;8.80;8.80;7.00
69349;PMS5003;64554;43.452;4.934;2024-01-11T04:46:42;13.20;13.20;7.80
69349;PMS5003;64554;43.452;4.934;2024-01-11T04:49:09;13.00;12.00;8.00
69349;PMS5003;64554;43.452;4.934;2024-01-11T04:51:36;15.25;14.50;8.50
69349;PMS5003;64554;43.452;4.934;2024-01-11T04:54:02;12.60;12.60;8.00
69349;PMS5003;64554;43.452;4.934;2024-01-11T04:56:29;17.00;17.00;9.00
69349;PMS5003;64554;43.452;4.934;2024-01-11T04:58:56;12.50;12.50;7.50
69349;PMS5003;64554;43.452;4.934;2024-01-11T05:01:22;13.25;12.00;7.25
69349;PMS5003;64554;43.452;4.934;2024-01-11T05:03:49;13.60;13.60;8.00
69349;PMS5003;64554;43.452;4.934;2024-01-11T05:06:19;13.40;12.40;8.00
69349;PMS5003;64554;43.452;4.934;2024-01-11T05:08:47;12.50;11.00;7.00
69349;PMS5003;64554;43.452;4.934;2024-01-11T05:11:23;13.67;13.67;7.00
69349;PMS5003;64554;43.452;4.934;2024-01-11T05:13:51;14.00;12.40;8.00
69349;PMS5003;64554;43.452;4.934;2024-01-11T05:16:21;10.60;10.60;6.00
69349;PMS5003;64554;43.452;4.934;2024-01-11T05:18:49;11.00;11.00;7.25
69349;PMS5003;64554;43.452;4.934;2024-01-11T05:21:16;14.50;14.50;10.00
69349;PMS5003;64554;43.452;4.934;2024-01-11T05:23:42;10.67;10.67;7.67
69349;PMS5003;64554;43.452;4.934;2024-01-11T05:26:09;13.00;12.00;8.75
69349;PMS5003;64554;43.452;4.934;2024-01-11T05:28:36;17.00;17.00;7.50
69349;PMS5003;64554;43.452;4.934;2024-01-11T05:31:09;14.00;14.00;8.40
69349;PMS5003;64554;43.452;4.934;2024-01-11T05:33:35;15.00;15.00;8.00
69349;PMS5003;64554;43.452;4.934;2024-01-11T05:36:02;12.80;11.80;8.00
69349;PMS5003;64554;43.452;4.934;2024-01-11T05:38:29;16.00;16.00;9.00
69349;PMS5003;64554;43.452;4.934;2024-01-11T05:40:56;20.50;19.00;9.00
69349;PMS5003;64554;43.452;4.934;2024-01-11T05:43:22;19.20;16.60;8.00
69349;PMS5003;64554;43.452;4.934;2024-01-11T05:45:51;13.00;11.60;7.60
69349;PMS5003;64554;43.452;4.934;2024-01-11T05:48:18;13.50;13.50;9.00
69349;PMS5003;64554;43.452;4.934;2024-01-11T05:50:45;15.00;14.00;9.00
69349;PMS5003;64554;43.452;4.934;2024-01-11T05:53:12;16.40;16.40;10.80
69349;PMS5003;64554;43.452;4.934;2024-01-11T05:55:39;16.25;14.25;10.25
69349;PMS5003;64554;43.452;4.934;2024-01-11T05:58:05;16.80;16.60;10.00
69349;PMS5003;64554;43.452;4.934;2024-01-11T06:00:32;18.25;15.75;8.25
69349;PMS5003;64554;43.452;4.934;2024-01-11T06:02:58;15.00;13.40;9.00
69349;PMS5003;64554;43.452;4.934;2024-01-11T06:05:25;20.00;18.25;10.00
69349;PMS5003;64554;43.452;4.934;2024-01-11T06:07:52;14.00;14.00;8.75
69349;PMS5003;64554;43.452;4.934;2024-01-11T06:10:18;18.50;17.00;10.00
69349;PMS5003;64554;43.452;4.934;2024-01-11T06:12:45;23.40;23.40;11.60
69349;PMS5003;64554;43.452;4.934;2024-01-11T06:15:12;16.00;16.00;9.00
69349;PMS5003;64554;43.452;4.934;2024-01-11T06:17:38;14.00;14.00;10.00
69349;PMS5003;64554;43.452;4.934;2024-01-11T06:20:05;15.00;15.00;10.00
69349;PMS5003;64554;43.452;4.934;2024-01-11T06:22:31;17.25;17.25;10.00
69349;PMS5003;64554;43.452;4.934;2024-01-11T06:24:58;14.50;14.50;10.00
69349;PMS5003;64554;43.452;4.934;2024-01-11T06:27:26;14.00;14.00;9.00
69349;PMS5003;64554;43.452;4.934;2024-01-11T06:29:52;12.20;12.20;9.20
69349;PMS5003;64554;43.452;4.934;2024-01-11T06:32:19;15.60;13.60;9.60
69349;PMS5003;64554;43.452;4.934;2024-01-11T06:34:45;14.40;13.00;9.00
69349;PMS5003;64554;43.452;4.934;2024-01-11T06:37:13;14.60;14.60;9.00
69349;PMS5003;64554;43.452;4.934;2024-01-11T06:39:40;22.50;19.75;10.25
69349;PMS5003;64554;43.452;4.934;2024-01-11T06:42:06;14.00;14.00;8.00
69349;PMS5003;64554;43.452;4.934;2024-01-11T06:44:33;13.25;13.25;9.00
69349;PMS5003;64554;43.452;4.934;2024-01-11T06:46:59;14.80;14.80;9.00
69349;PMS5003;64554;43.452;4.934;2024-01-11T06:49:28;14.40;14.40;9.00
69349;PMS5003;64554;43.452;4.934;2024-01-11T06:51:54;14.00;14.00;9.00
69349;PMS5003;64554;43.452;4.934;2024-01-11T06:54:21;17.75;17.75;9.00
69349;PMS5003;64554;43.452;4.934;2024-01-11T06:56:47;14.40;14.40;8.60
69349;PMS5003;64554;43.452;4.934;2024-01-11T06:59:14;11.00;10.00;7.60
69349;PMS5003;64554;43.452;4.934;2024-01-11T07:01:44;11.50;11.25;8.00
69349;PMS5003;64554;43.452;4.934;2024-01-11T07:04:11;15.25;13.25;9.00
69349;PMS5003;64554;43.452;4.934;2024-01-11T07:06:37;16.60;14.60;8.00
69349;PMS5003;64554;43.452;4.934;2024-01-11T07:09:04;14.75;14.75;8.75
69349;PMS5003;64554;43.452;4.934;2024-01-11T07:11:32;14.00;14.00;9.00
69349;PMS5003;64554;43.452;4.934;2024-01-11T07:13:58;11.00;11.00;8.00
69349;PMS5003;64554;43.452;4.934;2024-01-11T07:16:25;13.75;13.75;7.75
69349;PMS5003;64554;43.452;4.934;2024-01-11T07:18:51;14.00;14.00;8.00
69349;PMS5003;64554;43.452;4.934;2024-01-11T07:21:21;14.40;14.40;10.00
69349;PMS5003;64554;43.452;4.934;2024-01-11T07:23:55;15.50;15.50;10.25
69349;PMS5003;64554;43.452;4.934;2024-01-11T07:26:23;16.50;16.50;11.00
69349;PMS5003;64554;43.452;4.934;2024-01-11T07:28:50;21.50;21.00;12.00
69349;PMS5003;64554;43.452;4.934;2024-01-11T07:31:16;28.00;24.00;16.25
69349;PMS5003;64554;43.452;4.934;2024-01-11T07:33:43;20.40;19.40;13.60
69349;PMS5003;64554;43.452;4.934;2024-01-11T07:36:10;28.50;27.00;16.00
69349;PMS5003;64554;43.452;4.934;2024-01-11T07:38:36;22.00;22.00;13.00
69349;PMS5003;64554;43.452;4.934;2024-01-11T07:41:03;35.40;31.40;20.00
69349;PMS5003;64554;43.452;4.934;2024-01-11T07:43:31;22.20;21.60;14.80
69349;PMS5003;64554;43.452;4.934;2024-01-11T07:46:14;22.50;22.00;13.50
69349;PMS5003;64554;43.452;4.934;2024-01-11T07:48:40;23.00;20.20;13.60
69349;PMS5003;64554;43.452;4.934;2024-01-11T07:51:07;24.00;24.00;12.60
69349;PMS5003;64554;43.452;4.934;2024-01-11T07:53:34;17.00;17.00;11.60
69349;PMS5003;64554;43.452;4.934;2024-01-11T07:56:00;24.00;22.00;12.00
69349;PMS5003;64554;43.452;4.934;2024-01-11T07:58:27;28.00;28.00;16.00
69349;PMS5003;64554;43.452;4.934;2024-01-11T08:00:53;24.00;22.80;14.00
69349;PMS5003;64554;43.452;4.934;2024-01-11T08:03:21;22.80;21.80;15.00
69349;PMS5003;64554;43.452;4.934;2024-01-11T08:05:47;25.75;25.00;14.00
69349;PMS5003;64554;43.452;4.934;2024-01-11T08:08:16;19.60;19.60;13.00
69349;PMS5003;64554;43.452;4.934;2024-01-11T08:10:43;21.80;21.20;13.20
69349;PMS5003;64554;43.452;4.934;2024-01-11T08:13:09;24.40;22.80;15.40
69349;PMS5003;64554;43.452;4.934;2024-01-11T08:15:37;21.40;21.40;12.00
69349;PMS5003;64554;43.452;4.934;2024-01-11T08:18:04;22.50;20.50;13.00
69349;PMS5003;64554;43.452;4.934;2024-01-11T08:20:31;30.80;28.40;15.20
69349;PMS5003;64554;43.452;4.934;2024-01-11T08:22:59;23.00;20.50;13.00
69349;PMS5003;64554;43.452;4.934;2024-01-11T08:25:25;27.75;26.75;13.00
69349;PMS5003;64554;43.452;4.934;2024-01-11T08:27:52;26.00;26.00;16.50
69349;PMS5003;64554;43.452;4.934;2024-01-11T08:30:18;26.75;24.25;14.00
69349;PMS5003;64554;43.452;4.934;2024-01-11T08:32:45;29.25;28.00;14.00
69349;PMS5003;64554;43.452;4.934;2024-01-11T08:35:12;30.50;28.25;13.50
69349;PMS5003;64554;43.452;4.934;2024-01-11T08:37:39;25.00;22.50;13.50
69349;PMS5003;64554;43.452;4.934;2024-01-11T08:40:05;21.40;21.40;13.00
69349;PMS5003;64554;43.452;4.934;2024-01-11T08:42:32;28.40;25.20;15.40
69349;PMS5003;64554;43.452;4.934;2024-01-11T08:44:59;32.80;31.80;15.00
69349;PMS5003;64554;43.452;4.934;2024-01-11T08:47:33;25.80;25.40;14.00
69349;PMS5003;64554;43.452;4.934;2024-01-11T08:50:00;34.00;31.00;16.00
69349;PMS5003;64554;43.452;4.934;2024-01-11T08:52:26;48.00;41.00;27.25
69349;PMS5003;64554;43.452;4.934;2024-01-11T08:54:53;39.20;34.00;22.60
69349;PMS5003;64554;43.452;4.934;2024-01-11T08:57:19;51.60;40.60;28.20
69349;PMS5003;64554;43.452;4.934;2024-01-11T08:59:46;53.50;44.25;29.25
69349;PMS5003;64554;43.452;4.934;2024-01-11T09:02:12;48.00;40.50;23.00
69349;PMS5003;64554;43.452;4.934;2024-01-11T09:04:45;53.75;44.25;27.25
69349;PMS5003;64554;43.452;4.934;2024-01-11T09:07:13;48.00;40.40;23.00
69349;PMS5003;64554;43.452;4.934;2024-01-11T09:09:41;53.25;43.00;24.50
69349;PMS5003;64554;43.452;4.934;2024-01-11T09:12:19;50.25;41.25;25.25
69349;PMS5003;64554;43.452;4.934;2024-01-11T09:14:46;53.20;43.60;25.80
69349;PMS5003;64554;43.452;4.934;2024-01-11T09:17:13;45.00;38.25;23.00
69349;PMS5003;64554;43.452;4.934;2024-01-11T09:19:39;53.00;42.75;26.75
69349;PMS5003;64554;43.452;4.934;2024-01-11T09:22:06;50.60;42.40;26.00
69349;PMS5003;64554;43.452;4.934;2024-01-11T09:24:36;59.60;48.20;32.00
69349;PMS5003;64554;43.452;4.934;2024-01-11T09:27:05;67.50;53.50;36.00
69349;PMS5003;64554;43.452;4.934;2024-01-11T09:29:31;53.60;45.20;29.80
69349;PMS5003;64554;43.452;4.934;2024-01-11T09:31:58;22.75;22.50;12.50
69349;PMS5003;64554;43.452;4.934;2024-01-11T09:34:26;29.75;28.50;19.50
69349;PMS5003;64554;43.452;4.934;2024-01-11T09:36:52;42.75;35.25;22.25
69349;PMS5003;64554;43.452;4.934;2024-01-11T09:39:19;46.20;37.80;23.00
69349;PMS5003;64554;43.452;4.934;2024-01-11T09:41:52;41.50;36.00;22.00
69349;PMS5003;64554;43.452;4.934;2024-01-11T09:44:23;38.40;33.80;22.00
69349;PMS5003;64554;43.452;4.934;2024-01-11T09:46:50;36.50;33.00;21.00
69349;PMS5003;64554;43.452;4.934;2024-01-11T09:49:17;46.00;38.00;23.00
69349;PMS5003;64554;43.452;4.934;2024-01-11T09:51:45;39.75;34.50;21.25
69349;PMS5003;64554;43.452;4.934;2024-01-11T09:54:12;42.40;35.40;23.00
69349;PMS5003;64554;43.452;4.934;2024-01-11T09:56:40;36.40;33.40;21.40
69349;PMS5003;64554;43.452;4.934;2024-01-11T09:59:07;44.80;38.60;23.00
69349;PMS5003;64554;43.452;4.934;2024-01-11T10:01:37;46.60;39.00;22.80
69349;PMS5003;64554;43.452;4.934;2024-01-11T10:04:04;41.25;35.00;21.75
69349;PMS5003;64554;43.452;4.934;2024-01-11T10:06:32;43.00;36.33;22.33
69349;PMS5003;64554;43.452;4.934;2024-01-11T10:08:59;47.75;38.75;24.25
69349;PMS5003;64554;43.452;4.934;2024-01-11T10:11:26;57.50;45.75;27.75
69349;PMS5003;64554;43.452;4.934;2024-01-11T10:13:56;52.40;42.00;26.00
69349;PMS5003;64554;43.452;4.934;2024-01-11T10:16:22;51.75;41.75;26.00
69349;PMS5003;64554;43.452;4.934;2024-01-11T10:18:49;49.00;39.50;24.00
69349;PMS5003;64554;43.452;4.934;2024-01-11T10:21:15;45.60;39.00;23.60
69349;PMS5003;64554;43.452;4.934;2024-01-11T10:23:42;52.20;43.80;24.00
69349;PMS5003;64554;43.452;4.934;2024-01-11T10:26:08;50.00;41.50;24.75
69349;PMS5003;64554;43.452;4.934;2024-01-11T10:28:35;45.50;39.00;23.00
69349;PMS5003;64554;43.452;4.934;2024-01-11T10:31:04;50.50;42.25;24.25
69349;PMS5003;64554;43.452;4.934;2024-01-11T10:33:33;47.50;39.50;24.00
69349;PMS5003;64554;43.452;4.934;2024-01-11T10:36:00;51.25;43.00;26.50
69349;PMS5003;64554;43.452;4.934;2024-01-11T10:38:27;51.25;41.50;26.25
69349;PMS5003;64554;43.452;4.934;2024-01-11T10:40:56;52.75;43.00;26.50
69349;PMS5003;64554;43.452;4.934;2024-01-11T10:43:26;50.40;41.20;26.60
69349;PMS5003;64554;43.452;4.934;2024-01-11T10:45:53;50.75;42.25;26.25
69349;PMS5003;64554;43.452;4.934;2024-01-11T10:48:25;50.20;42.00;25.20
69349;PMS5003;64554;43.452;4.934;2024-01-11T10:50:57;50.00;42.00;26.00
69349;PMS5003;64554;43.452;4.934;2024-01-11T10:56:12;50.75;42.00;24.50
69349;PMS5003;64554;43.452;4.934;2024-01-11T10:58:42;49.50;39.75;22.75
69349;PMS5003;64554;43.452;4.934;2024-01-11T11:01:10;53.60;43.60;26.60
69349;PMS5003;64554;43.452;4.934;2024-01-11T11:03:37;45.75;38.50;24.75
69349;PMS5003;64554;43.452;4.934;2024-01-11T11:06:06;51.00;42.40;26.00
69349;PMS5003;64554;43.452;4.934;2024-01-11T11:08:33;51.50;42.00;27.00
69349;PMS5003;64554;43.452;4.934;2024-01-11T11:11:01;56.00;44.25;26.50
69349;PMS5003;64554;43.452;4.934;2024-01-11T11:13:30;52.00;44.00;25.25
69349;PMS5003;64554;43.452;4.934;2024-01-11T11:15:57;56.40;46.20;28.20
69349;PMS5003;64554;43.452;4.934;2024-01-11T11:18:27;50.25;42.25;25.25
69349;PMS5003;64554;43.452;4.934;2024-01-11T11:20:53;54.60;44.20;27.20
69349;PMS5003;64554;43.452;4.934;2024-01-11T11:23:20;54.00;44.40;27.00
69349;PMS5003;64554;43.452;4.934;2024-01-11T11:25:47;60.00;46.60;28.00
69349;PMS5003;64554;43.452;4.934;2024-01-11T11:28:15;55.00;43.00;26.25
69349;PMS5003;64554;43.452;4.934;2024-01-11T11:30:42;55.00;44.50;27.00
69349;PMS5003;64554;43.452;4.934;2024-01-11T11:33:24;52.00;42.25;26.75
69349;PMS5003;64554;43.452;4.934;2024-01-11T11:35:52;49.00;41.80;25.80
69349;PMS5003;64554;43.452;4.934;2024-01-11T11:38:20;53.20;44.00;24.00
69349;PMS5003;64554;43.452;4.934;2024-01-11T11:40:48;49.50;40.50;26.00
69349;PMS5003;64554;43.452;4.934;2024-01-11T11:43:15;55.25;44.25;26.00
69349;PMS5003;64554;43.452;4.934;2024-01-11T11:45:42;51.00;43.00;26.25
69349;PMS5003;64554;43.452;4.934;2024-01-11T11:51:28;48.25;39.75;26.25
69349;PMS5003;64554;43.452;4.934;2024-01-11T11:53:51;48.50;40.50;26.00
69349;PMS5003;64554;43.452;4.934;2024-01-11T11:56:19;51.25;41.50;26.50
69349;PMS5003;64554;43.452;4.934;2024-01-11T11:58:46;51.50;43.75;26.75
69349;PMS5003;64554;43.452;4.934;2024-01-11T12:01:16;54.20;44.00;27.00
69349;PMS5003;64554;43.452;4.934;2024-01-11T12:03:44;56.80;45.80;27.00
69349;PMS5003;64554;43.452;4.934;2024-01-11T12:06:19;57.40;44.40;26.80
69349;PMS5003;64554;43.452;4.934;2024-01-11T12:08:46;57.50;46.25;28.25
69349;PMS5003;64554;43.452;4.934;2024-01-11T12:11:17;47.00;40.00;26.00
69349;PMS5003;64554;43.452;4.934;2024-01-11T12:13:44;52.00;41.60;27.60
69349;PMS5003;64554;43.452;4.934;2024-01-11T12:16:11;57.40;45.40;26.80
69349;PMS5003;64554;43.452;4.934;2024-01-11T12:18:38;49.00;40.40;26.00
69349;PMS5003;64554;43.452;4.934;2024-01-11T12:21:05;54.25;44.25;26.50
69349;PMS5003;64554;43.452;4.934;2024-01-11T12:23:32;49.00;40.80;25.40
69349;PMS5003;64554;43.452;4.934;2024-01-11T12:26:01;53.00;43.40;26.00
69349;PMS5003;64554;43.452;4.934;2024-01-11T12:28:29;60.00;48.25;28.00
69349;PMS5003;64554;43.452;4.934;2024-01-11T12:30:55;69.00;57.00;35.50
69349;PMS5003;64554;43.452;4.934;2024-01-11T12:33:23;55.20;45.80;27.80
69349;PMS5003;64554;43.452;4.934;2024-01-11T12:35:51;56.50;44.00;28.00
69349;PMS5003;64554;43.452;4.934;2024-01-11T12:38:18;51.25;42.00;26.00
69349;PMS5003;64554;43.452;4.934;2024-01-11T12:40:45;55.00;44.00;27.00
69349;PMS5003;64554;43.452;4.934;2024-01-11T12:43:12;53.00;44.00;27.50
69349;PMS5003;64554;43.452;4.934;2024-01-11T12:45:39;54.60;45.40;28.00
69349;PMS5003;64554;43.452;4.934;2024-01-11T12:48:08;61.75;49.00;31.00
69349;PMS5003;64554;43.452;4.934;2024-01-11T12:50:36;56.25;46.00;28.50
69349;PMS5003;64554;43.452;4.934;2024-01-11T12:55:35;55.25;44.75;28.00
69349;PMS5003;64554;43.452;4.934;2024-01-11T12:58:20;53.25;44.25;27.25
69349;PMS5003;64554;43.452;4.934;2024-01-11T13:00:50;55.25;45.00;27.75
69349;PMS5003;64554;43.452;4.934;2024-01-11T13:03:17;55.25;44.00;26.00
69349;PMS5003;64554;43.452;4.934;2024-01-11T13:05:46;52.00;43.25;27.00
69349;PMS5003;64554;43.452;4.934;2024-01-11T13:08:12;57.20;46.60;27.00
69349;PMS5003;64554;43.452;4.934;2024-01-11T13:10:39;52.25;41.25;26.00
69349;PMS5003;64554;43.452;4.934;2024-01-11T13:13:06;52.80;41.20;26.40
69349;PMS5003;64554;43.452;4.934;2024-01-11T13:15:35;49.80;41.00;26.00
69349;PMS5003;64554;43.452;4.934;2024-01-11T13:18:02;49.25;41.25;26.25
69349;PMS5003;64554;43.452;4.934;2024-01-11T13:20:29;54.80;45.00;26.20
69349;PMS5003;64554;43.452;4.934;2024-01-11T13:23:12;58.75;47.00;29.25
69349;PMS5003;64554;43.452;4.934;2024-01-11T13:25:42;55.00;44.60;26.20
69349;PMS5003;64554;43.452;4.934;2024-01-11T13:28:09;58.75;46.00;26.00
69349;PMS5003;64554;43.452;4.934;2024-01-11T13:30:37;53.75;43.25;25.75
69349;PMS5003;64554;43.452;4.934;2024-01-11T13:33:05;54.80;44.00;25.40
69349;PMS5003;64554;43.452;4.934;2024-01-11T13:35:32;51.60;43.00;24.20
69349;PMS5003;64554;43.452;4.934;2024-01-11T13:37:58;49.75;42.50;27.75
69349;PMS5003;64554;43.452;4.934;2024-01-11T13:40:25;52.20;42.00;26.40
69349;PMS5003;64554;43.452;4.934;2024-01-11T13:42:55;59.75;48.25;30.00
69349;PMS5003;64554;43.452;4.934;2024-01-11T13:45:24;58.33;47.00;29.00
69349;PMS5003;64554;43.452;4.934;2024-01-11T13:47:52;65.00;51.75;31.00
69349;PMS5003;64554;43.452;4.934;2024-01-11T13:50:20;53.00;41.75;28.00
69349;PMS5003;64554;43.452;4.934;2024-01-11T13:52:50;56.50;45.75;28.00
69349;PMS5003;64554;43.452;4.934;2024-01-11T13:55:16;55.75;45.75;28.00
69349;PMS5003;64554;43.452;4.934;2024-01-11T13:57:49;57.00;45.25;28.00
69349;PMS5003;64554;43.452;4.934;2024-01-11T14:00:16;58.00;46.00;28.00
69349;PMS5003;64554;43.452;4.934;2024-01-11T14:02:48;53.20;43.60;26.60
69349;PMS5003;64554;43.452;4.934;2024-01-11T14:05:15;52.50;43.00;26.50